Gregory, Michigan
Current Conditions -  °F | °C
As of 10:15 PM on Tuesday 21 Oct 2014 (Local Time) from KOZW Reporting Station
Clear Clear  
Wind Chill: 40°   Ceiling: Unl
Heat Index: 40°   Visibility: 10mi
Dew Point: 34°   Wind: 3mph
Humidity: 80%   Direction: 350°N
Pressure: 30.23"   Gusts: NA
Location:  42.46°N, 84.08°W
Report Text: KOZW 220215Z AUTO 35003KT 10SM CLR 05/01 A3023 RMK AO2 T00450013
Loading
Personal Weather Stations






























Interactive Weather Map
Tropical Storm Tracking
New forecast layout! Learn more

10-Day Weather Forecast

Advertisements
Track Severe Weather on mobile